createdAt,value
2022-08-30T00:02:20.472Z,18.30
2022-08-30T00:04:47.531Z,18.20
2022-08-30T00:07:14.349Z,18.20
2022-08-30T00:09:41.218Z,18.20
2022-08-30T00:12:08.984Z,18.10
2022-08-30T00:14:35.827Z,18.10
2022-08-30T00:17:02.599Z,18.10
2022-08-30T00:19:29.375Z,18.00
2022-08-30T00:21:56.141Z,17.90
2022-08-30T00:24:22.944Z,17.90
2022-08-30T00:26:49.700Z,17.80
2022-08-30T00:29:16.479Z,17.80
2022-08-30T00:31:43.234Z,17.70
2022-08-30T00:34:10.020Z,17.70
2022-08-30T00:36:37.554Z,17.60
2022-08-30T00:39:04.558Z,17.60
2022-08-30T00:41:31.323Z,17.50
2022-08-30T00:43:59.390Z,17.50
2022-08-30T00:46:28.170Z,17.50
2022-08-30T00:48:55.825Z,17.50
2022-08-30T00:51:22.680Z,17.50
2022-08-30T00:53:51.086Z,17.40
2022-08-30T00:56:18.222Z,17.40
2022-08-30T00:58:47.341Z,17.40
2022-08-30T01:01:14.424Z,17.40
2022-08-30T01:03:41.349Z,17.40
2022-08-30T01:06:08.138Z,17.40
2022-08-30T01:08:35.317Z,17.40
2022-08-30T01:11:03.654Z,17.40
2022-08-30T01:13:30.627Z,17.30
2022-08-30T01:16:00.029Z,17.30
2022-08-30T01:18:27.335Z,17.30
2022-08-30T01:21:35.810Z,17.30
2022-08-30T01:24:02.913Z,17.20
2022-08-30T01:26:30.259Z,17.20
2022-08-30T01:28:58.894Z,17.20
2022-08-30T01:31:25.799Z,17.20
2022-08-30T01:33:52.676Z,17.10
2022-08-30T01:36:19.889Z,17.10
2022-08-30T01:38:49.249Z,17.10
2022-08-30T01:41:17.336Z,17.00
2022-08-30T01:43:44.447Z,17.00
2022-08-30T01:46:11.995Z,16.90
2022-08-30T01:48:39.637Z,16.90
2022-08-30T01:51:06.683Z,16.80
2022-08-30T01:53:33.500Z,16.70
2022-08-30T01:56:00.289Z,16.70
2022-08-30T01:58:28.354Z,16.60
2022-08-30T02:00:55.186Z,16.60
2022-08-30T02:03:22.495Z,16.60
2022-08-30T02:05:49.394Z,16.50
2022-08-30T02:08:16.199Z,16.60
2022-08-30T02:10:43.040Z,16.60
2022-08-30T02:13:09.857Z,16.60
2022-08-30T02:15:41.924Z,16.60
2022-08-30T02:18:10.723Z,16.60
2022-08-30T02:20:39.602Z,16.60
2022-08-30T02:23:06.437Z,16.50
2022-08-30T02:25:33.227Z,16.50
2022-08-30T02:28:00.016Z,16.40
2022-08-30T02:30:26.865Z,16.40
2022-08-30T02:32:53.645Z,16.40
2022-08-30T02:35:20.436Z,16.40
2022-08-30T02:37:47.204Z,16.30
2022-08-30T02:40:14.142Z,16.30
2022-08-30T02:42:41.760Z,16.30
2022-08-30T02:45:08.967Z,16.30
2022-08-30T02:47:35.901Z,16.30
2022-08-30T02:50:06.557Z,16.30
2022-08-30T02:52:33.332Z,16.30
2022-08-30T02:55:00.244Z,16.30
2022-08-30T02:57:27.077Z,16.20
2022-08-30T02:59:53.936Z,16.20
2022-08-30T03:02:22.218Z,16.10
2022-08-30T03:04:49.300Z,16.00
2022-08-30T03:07:16.254Z,16.00
2022-08-30T03:09:43.003Z,16.00
2022-08-30T03:12:09.926Z,16.00
2022-08-30T03:14:37.980Z,15.90
2022-08-30T03:17:06.806Z,15.80
2022-08-30T03:19:42.097Z,15.80
2022-08-30T03:22:08.874Z,15.80
2022-08-30T03:24:35.633Z,15.80
2022-08-30T03:27:02.402Z,15.80
2022-08-30T03:29:29.729Z,15.80
2022-08-30T03:31:57.387Z,15.70
2022-08-30T03:34:24.743Z,15.70
2022-08-30T03:36:54.961Z,15.60
2022-08-30T03:39:22.618Z,15.60
2022-08-30T03:41:49.451Z,15.70
2022-08-30T03:44:16.186Z,15.60
2022-08-30T03:46:43.029Z,15.60
2022-08-30T03:49:09.802Z,15.60
2022-08-30T03:51:36.911Z,15.60
2022-08-30T03:54:03.746Z,15.60
2022-08-30T03:56:30.519Z,15.60
2022-08-30T03:58:57.315Z,15.50
2022-08-30T04:01:24.326Z,15.50
2022-08-30T04:03:51.097Z,15.50
2022-08-30T04:06:17.897Z,15.50
2022-08-30T04:08:46.036Z,15.50
2022-08-30T04:11:14.939Z,15.50
2022-08-30T04:13:42.024Z,15.50
2022-08-30T04:16:09.033Z,15.50
2022-08-30T04:18:36.891Z,15.50
2022-08-30T04:21:04.006Z,15.40
2022-08-30T04:23:30.759Z,15.40
2022-08-30T04:25:58.090Z,15.40
2022-08-30T04:28:24.879Z,15.40
2022-08-30T04:30:51.626Z,15.40
2022-08-30T04:33:19.246Z,15.30
2022-08-30T04:35:47.445Z,15.30
2022-08-30T04:38:14.633Z,15.40
2022-08-30T04:40:42.827Z,15.40
2022-08-30T04:43:09.713Z,15.40
2022-08-30T04:45:38.481Z,15.40
2022-08-30T04:48:05.563Z,15.50
2022-08-30T04:50:32.512Z,15.50
2022-08-30T04:52:59.790Z,15.60
2022-08-30T04:55:26.571Z,15.70
2022-08-30T04:57:53.382Z,15.80
2022-08-30T05:00:22.893Z,15.80
2022-08-30T05:02:49.691Z,15.90
2022-08-30T05:05:46.557Z,16.00
2022-08-30T05:08:14.155Z,16.00
2022-08-30T05:10:47.421Z,16.00
2022-08-30T05:13:14.817Z,16.00
2022-08-30T05:15:41.631Z,15.90
2022-08-30T05:18:13.318Z,15.90
2022-08-30T05:20:41.253Z,15.90
2022-08-30T05:23:08.732Z,16.00
2022-08-30T05:25:37.837Z,16.00
2022-08-30T05:28:04.767Z,16.10
2022-08-30T05:30:32.955Z,16.20
2022-08-30T05:32:59.726Z,16.30
2022-08-30T05:35:26.742Z,16.60
2022-08-30T05:37:53.983Z,16.60
2022-08-30T05:40:21.084Z,16.80
2022-08-30T05:42:47.870Z,16.90
2022-08-30T05:45:14.962Z,17.10
2022-08-30T05:47:41.909Z,17.30
2022-08-30T05:50:09.078Z,17.50
2022-08-30T05:52:37.178Z,17.70
2022-08-30T05:55:04.362Z,17.90
2022-08-30T05:57:35.805Z,18.30
2022-08-30T06:00:06.313Z,18.70
2022-08-30T06:02:33.100Z,18.90
2022-08-30T06:05:00.116Z,19.00
2022-08-30T06:07:26.863Z,19.00
2022-08-30T06:09:53.606Z,19.10
2022-08-30T06:12:20.331Z,19.30
2022-08-30T06:14:47.082Z,19.70
2022-08-30T06:17:13.842Z,20.00
2022-08-30T06:19:40.589Z,20.00
2022-08-30T06:22:07.321Z,19.90
2022-08-30T06:24:56.537Z,19.70
2022-08-30T06:27:22.950Z,19.70
2022-08-30T06:29:52.835Z,19.80
2022-08-30T06:32:19.571Z,20.20
2022-08-30T06:34:46.356Z,20.70
2022-08-30T06:37:25.586Z,21.30
2022-08-30T06:39:58.099Z,21.80
2022-08-30T06:42:30.612Z,22.10
2022-08-30T06:44:58.395Z,22.40
2022-08-30T06:47:25.157Z,22.70
2022-08-30T06:49:51.909Z,23.00
2022-08-30T06:52:19.201Z,23.20
2022-08-30T06:54:46.052Z,23.10
2022-08-30T06:57:12.978Z,23.10
2022-08-30T06:59:40.096Z,23.40
2022-08-30T07:02:06.991Z,23.60
2022-08-30T07:04:33.844Z,24.00
2022-08-30T07:07:00.572Z,24.00
2022-08-30T07:09:27.388Z,24.10
2022-08-30T07:11:54.208Z,24.20
2022-08-30T07:14:21.077Z,24.50
2022-08-30T07:16:50.818Z,24.80
2022-08-30T07:19:20.947Z,25.10
2022-08-30T07:21:49.298Z,25.30
2022-08-30T07:24:16.284Z,25.60
2022-08-30T07:26:46.772Z,25.80
2022-08-30T07:29:13.552Z,25.90
2022-08-30T07:31:40.431Z,26.10
2022-08-30T07:34:07.273Z,26.40
2022-08-30T07:36:34.863Z,26.60
2022-08-30T07:39:01.736Z,26.70
2022-08-30T07:41:30.551Z,26.80
2022-08-30T07:43:57.718Z,26.90
2022-08-30T07:46:25.143Z,27.20
2022-08-30T07:48:54.183Z,27.40
2022-08-30T07:51:23.791Z,27.60
2022-08-30T07:53:50.671Z,27.70
2022-08-30T07:56:17.412Z,27.90
2022-08-30T07:58:44.137Z,28.10
2022-08-30T08:01:11.566Z,28.10
2022-08-30T08:03:40.195Z,28.10
2022-08-30T08:06:07.363Z,28.20
2022-08-30T08:08:34.410Z,28.40
2022-08-30T08:11:16.203Z,28.50
2022-08-30T08:13:50.636Z,28.60
2022-08-30T08:16:22.530Z,28.60
2022-08-30T08:18:49.334Z,28.80
2022-08-30T08:21:16.086Z,29.10
2022-08-30T08:23:42.828Z,29.00
2022-08-30T08:26:09.583Z,29.10
2022-08-30T08:28:36.414Z,29.20
2022-08-30T08:31:03.527Z,29.40
2022-08-30T08:33:30.371Z,29.50
2022-08-30T08:35:57.104Z,29.70
2022-08-30T08:38:24.079Z,29.90
2022-08-30T08:41:21.728Z,30.10
2022-08-30T08:43:48.502Z,30.30
2022-08-30T08:47:05.461Z,30.50
2022-08-30T08:49:34.517Z,30.60
2022-08-30T08:52:20.277Z,30.60
2022-08-30T08:54:59.108Z,30.60
2022-08-30T08:57:26.908Z,30.60
2022-08-30T08:59:55.052Z,30.60
2022-08-30T09:02:34.141Z,30.70
2022-08-30T09:05:01.829Z,30.90
2022-08-30T09:07:32.188Z,30.90
2022-08-30T09:10:00.639Z,30.90
2022-08-30T09:12:27.622Z,31.00
2022-08-30T09:15:04.140Z,31.10
2022-08-30T09:17:31.066Z,31.30
2022-08-30T09:19:59.254Z,31.40
2022-08-30T09:22:42.592Z,31.50
2022-08-30T09:25:13.396Z,31.50
2022-08-30T09:27:41.935Z,31.50
2022-08-30T09:30:15.890Z,31.60
2022-08-30T09:32:59.202Z,31.50
2022-08-30T09:35:41.694Z,31.40
2022-08-30T09:38:10.430Z,31.30
2022-08-30T09:40:44.958Z,31.20
2022-08-30T09:43:20.681Z,31.10
2022-08-30T09:46:08.920Z,31.10
2022-08-30T09:48:44.055Z,31.10
2022-08-30T09:51:11.489Z,31.20
2022-08-30T09:54:19.409Z,31.40
2022-08-30T09:57:01.072Z,31.60
2022-08-30T09:59:52.082Z,31.80
2022-08-30T10:02:33.920Z,31.90
2022-08-30T10:05:07.034Z,31.90
2022-08-30T10:07:46.338Z,31.80
2022-08-30T10:10:21.026Z,31.80
2022-08-30T10:12:55.342Z,31.80
2022-08-30T10:15:54.162Z,31.70
2022-08-30T10:18:53.508Z,31.40
2022-08-30T10:21:28.909Z,30.90
2022-08-30T10:24:02.979Z,30.40
2022-08-30T10:26:40.493Z,29.90
2022-08-30T10:29:16.676Z,29.60
2022-08-30T10:31:55.985Z,29.60
2022-08-30T10:34:27.141Z,29.60
2022-08-30T10:37:03.131Z,29.60
2022-08-30T10:39:32.681Z,29.40
2022-08-30T10:42:26.490Z,29.10
2022-08-30T10:44:58.446Z,28.90
2022-08-30T10:47:40.259Z,28.90
2022-08-30T10:50:13.826Z,29.10
2022-08-30T10:53:11.830Z,29.20
2022-08-30T10:55:57.150Z,29.20
2022-08-30T10:58:24.501Z,29.30
2022-08-30T11:01:08.127Z,29.50
2022-08-30T11:04:01.019Z,29.80
2022-08-30T11:06:37.746Z,30.00
2022-08-30T11:09:33.349Z,30.30
2022-08-30T11:12:53.214Z,30.40
2022-08-30T11:15:24.968Z,30.80
2022-08-30T11:17:56.949Z,30.90
2022-08-30T11:20:30.771Z,31.00
2022-08-30T11:23:33.053Z,31.00
2022-08-30T11:26:07.781Z,31.10
2022-08-30T11:28:44.921Z,30.90
2022-08-30T11:31:20.789Z,30.90
2022-08-30T11:33:55.346Z,31.10
2022-08-30T11:36:46.022Z,31.20
2022-08-30T11:39:51.687Z,31.30
2022-08-30T11:45:25.347Z,31.50
2022-08-30T11:47:54.012Z,31.70
2022-08-30T11:50:34.747Z,31.90
2022-08-30T11:53:51.988Z,32.00
2022-08-30T11:56:36.697Z,31.90
2022-08-30T11:59:25.120Z,31.70
2022-08-30T12:01:52.353Z,31.60
2022-08-30T12:04:22.886Z,31.50
2022-08-30T12:07:00.331Z,31.70
2022-08-30T12:09:47.103Z,31.90
2022-08-30T12:12:26.528Z,32.30
2022-08-30T12:14:54.925Z,32.60
2022-08-30T12:17:43.502Z,32.80
2022-08-30T12:20:24.419Z,33.00
2022-08-30T12:22:51.779Z,33.20
2022-08-30T12:25:31.638Z,33.40
2022-08-30T12:28:13.308Z,33.50
2022-08-30T12:30:40.903Z,33.50
2022-08-30T12:33:14.002Z,33.40
2022-08-30T12:35:42.296Z,33.50
2022-08-30T12:38:16.161Z,33.50
2022-08-30T12:40:50.417Z,33.30
2022-08-30T12:43:41.503Z,32.80
2022-08-30T12:46:11.558Z,32.40
2022-08-30T12:48:39.050Z,32.10
2022-08-30T12:51:07.168Z,31.80
2022-08-30T12:53:41.730Z,31.50
2022-08-30T12:56:13.222Z,31.20
2022-08-30T12:58:46.685Z,30.80
2022-08-30T13:01:33.296Z,30.60
2022-08-30T13:04:15.132Z,30.30
2022-08-30T13:06:56.283Z,30.10
2022-08-30T13:09:27.594Z,30.10
2022-08-30T13:11:59.945Z,30.10
2022-08-30T13:14:36.463Z,30.00
2022-08-30T13:17:19.523Z,29.80
2022-08-30T13:20:06.762Z,29.70
2022-08-30T13:22:40.971Z,29.80
2022-08-30T13:25:08.837Z,30.00
2022-08-30T13:27:36.915Z,30.20
2022-08-30T13:30:08.558Z,30.40
2022-08-30T13:32:40.465Z,30.50
2022-08-30T13:35:08.329Z,30.50
2022-08-30T13:37:51.933Z,30.60
2022-08-30T13:40:19.647Z,31.10
2022-08-30T13:42:46.773Z,31.70
2022-08-30T13:48:01.330Z,31.90
2022-08-30T13:50:28.102Z,31.50
2022-08-30T13:52:57.376Z,31.20
2022-08-30T13:55:24.148Z,31.00
2022-08-30T13:57:54.832Z,30.90
2022-08-30T14:00:22.532Z,31.20
2022-08-30T14:02:54.645Z,31.70
2022-08-30T14:05:50.709Z,32.20
2022-08-30T14:11:11.808Z,32.50
2022-08-30T14:14:14.723Z,32.60
2022-08-30T14:16:27.377Z,32.60
2022-08-30T14:18:54.784Z,32.60
2022-08-30T14:21:24.799Z,32.70
2022-08-30T14:23:53.025Z,32.80
2022-08-30T14:26:39.912Z,32.80
2022-08-30T14:29:09.177Z,32.70
2022-08-30T14:31:37.185Z,32.30
2022-08-30T14:34:04.367Z,31.90
2022-08-30T14:36:32.666Z,31.30
2022-08-30T14:39:00.457Z,30.80
2022-08-30T14:41:27.279Z,30.30
2022-08-30T14:43:54.017Z,29.80
2022-08-30T14:46:22.105Z,29.40
2022-08-30T14:48:50.366Z,29.10
2022-08-30T14:51:18.705Z,28.70
2022-08-30T14:53:45.944Z,28.40
2022-08-30T14:56:15.866Z,28.20
2022-08-30T14:58:42.763Z,28.00
2022-08-30T15:01:10.328Z,27.90
2022-08-30T15:03:39.737Z,27.90
2022-08-30T15:06:07.393Z,27.80
2022-08-30T15:08:35.155Z,27.80
2022-08-30T15:11:06.405Z,27.90
2022-08-30T15:13:33.650Z,28.10
2022-08-30T15:16:00.537Z,28.10
2022-08-30T15:18:27.280Z,28.10
2022-08-30T15:20:54.135Z,28.00
2022-08-30T15:23:22.978Z,28.00
2022-08-30T15:25:51.749Z,27.90
2022-08-30T15:28:19.353Z,27.80
2022-08-30T15:30:46.215Z,27.80
2022-08-30T15:33:12.947Z,27.90
2022-08-30T15:35:41.449Z,27.90
2022-08-30T15:38:08.327Z,27.90
2022-08-30T15:40:40.029Z,28.00
2022-08-30T15:43:06.864Z,27.90
2022-08-30T15:45:33.695Z,27.70
2022-08-30T15:48:00.755Z,27.70
2022-08-30T15:50:27.879Z,27.60
2022-08-30T15:52:55.012Z,27.50
2022-08-30T15:55:22.169Z,27.50
2022-08-30T15:57:48.903Z,27.40
2022-08-30T16:00:16.089Z,27.40
2022-08-30T16:02:43.929Z,27.40
2022-08-30T16:05:10.888Z,27.40
2022-08-30T16:07:40.873Z,27.40
2022-08-30T16:10:08.806Z,27.30
2022-08-30T16:12:35.556Z,27.20
2022-08-30T16:15:02.306Z,27.10
2022-08-30T16:17:29.190Z,27.00
2022-08-30T16:19:58.946Z,26.90
2022-08-30T16:22:26.516Z,26.80
2022-08-30T16:24:53.536Z,26.70
2022-08-30T16:27:21.062Z,26.50
2022-08-30T16:29:48.418Z,26.40
2022-08-30T16:32:17.413Z,26.30
2022-08-30T16:34:44.139Z,26.30
2022-08-30T16:37:10.884Z,26.20
2022-08-30T16:39:37.597Z,26.20
2022-08-30T16:42:06.843Z,26.10
2022-08-30T16:44:33.883Z,26.00
2022-08-30T16:47:01.614Z,25.90
2022-08-30T16:49:28.469Z,25.90
2022-08-30T16:51:55.371Z,25.80
2022-08-30T16:54:23.303Z,25.70
2022-08-30T16:56:50.106Z,25.60
2022-08-30T16:59:16.975Z,25.60
2022-08-30T17:01:44.816Z,25.60
2022-08-30T17:04:12.953Z,25.60
2022-08-30T17:06:42.681Z,25.60
2022-08-30T17:09:10.450Z,25.60
2022-08-30T17:11:40.292Z,25.60
2022-08-30T17:14:07.469Z,25.60
2022-08-30T17:16:35.661Z,25.50
2022-08-30T17:19:04.320Z,25.50
2022-08-30T17:21:32.263Z,25.40
2022-08-30T17:24:02.164Z,25.40
2022-08-30T17:26:33.403Z,25.30
2022-08-30T17:29:00.177Z,25.30
2022-08-30T17:31:29.234Z,25.20
2022-08-30T17:34:01.174Z,25.10
2022-08-30T17:36:30.962Z,25.00
2022-08-30T17:38:57.708Z,25.00
2022-08-30T17:41:24.445Z,24.90
2022-08-30T17:43:51.552Z,24.90
2022-08-30T17:46:19.463Z,24.80
2022-08-30T17:48:46.371Z,24.70
2022-08-30T17:51:13.242Z,24.60
2022-08-30T17:53:40.059Z,24.50
2022-08-30T17:56:07.486Z,24.40
2022-08-30T17:58:34.737Z,24.30
2022-08-30T18:01:12.192Z,24.20
2022-08-30T18:03:39.218Z,24.10
2022-08-30T18:06:06.898Z,24.00
2022-08-30T18:08:34.316Z,23.90
2022-08-30T18:11:01.648Z,23.80
2022-08-30T18:13:28.667Z,23.70
2022-08-30T18:15:56.541Z,23.60
2022-08-30T18:18:23.839Z,23.50
2022-08-30T18:20:51.261Z,23.50
2022-08-30T18:23:18.124Z,23.40
2022-08-30T18:25:58.625Z,23.30
2022-08-30T18:28:25.806Z,23.20
2022-08-30T18:30:57.099Z,23.20
2022-08-30T18:33:27.369Z,23.10
2022-08-30T18:35:55.535Z,23.00
2022-08-30T18:38:23.818Z,23.00
2022-08-30T18:40:51.930Z,22.90
2022-08-30T18:43:24.652Z,22.80
2022-08-30T18:45:57.196Z,22.80
2022-08-30T18:48:24.096Z,22.70
2022-08-30T18:50:55.151Z,22.60
2022-08-30T18:53:28.546Z,22.50
2022-08-30T18:55:56.627Z,22.40
2022-08-30T18:58:23.454Z,22.20
2022-08-30T19:00:50.830Z,22.20
2022-08-30T19:03:18.929Z,22.10
2022-08-30T19:05:46.398Z,22.00
2022-08-30T19:08:13.800Z,21.90
2022-08-30T19:10:42.247Z,21.90
2022-08-30T19:13:11.667Z,21.90
2022-08-30T19:15:38.776Z,21.80
2022-08-30T19:18:16.822Z,21.80
2022-08-30T19:20:45.353Z,21.70
2022-08-30T19:23:12.556Z,21.70
2022-08-30T19:25:40.634Z,21.70
2022-08-30T19:28:07.920Z,21.60
2022-08-30T19:30:35.508Z,21.60
2022-08-30T19:33:02.562Z,21.60
2022-08-30T19:35:30.491Z,21.50
2022-08-30T19:37:57.814Z,21.50
2022-08-30T19:40:25.513Z,21.40
2022-08-30T19:42:53.268Z,21.40
2022-08-30T19:45:21.454Z,21.20
2022-08-30T19:47:48.827Z,21.20
2022-08-30T19:50:15.980Z,21.20
2022-08-30T19:52:43.053Z,21.10
2022-08-30T19:55:10.728Z,21.00
2022-08-30T19:57:37.682Z,21.00
2022-08-30T20:00:11.237Z,20.90
2022-08-30T20:02:38.552Z,20.90
2022-08-30T20:05:06.240Z,20.90
2022-08-30T20:07:35.454Z,20.80
2022-08-30T20:10:07.948Z,20.80
2022-08-30T20:12:34.939Z,20.70
2022-08-30T20:15:02.624Z,20.60
2022-08-30T20:17:42.469Z,20.60
2022-08-30T20:20:18.141Z,20.50
2022-08-30T20:22:50.652Z,20.50
2022-08-30T20:25:21.222Z,20.50
2022-08-30T20:27:49.034Z,20.40
2022-08-30T20:30:16.353Z,20.30
2022-08-30T20:32:46.888Z,20.30
2022-08-30T20:35:16.877Z,20.20
2022-08-30T20:37:44.435Z,20.20
2022-08-30T20:40:15.681Z,20.20
2022-08-30T20:42:45.721Z,20.10
2022-08-30T20:45:14.175Z,20.10
2022-08-30T20:47:41.618Z,20.00
2022-08-30T20:50:13.456Z,20.00
2022-08-30T20:52:40.972Z,19.90
2022-08-30T20:55:08.327Z,19.90
2022-08-30T20:57:35.106Z,19.90
2022-08-30T21:00:02.027Z,19.90
2022-08-30T21:02:28.949Z,19.80
2022-08-30T21:04:55.947Z,19.80
2022-08-30T21:07:22.784Z,19.80
2022-08-30T21:09:50.347Z,19.80
2022-08-30T21:12:17.141Z,19.80
2022-08-30T21:14:43.950Z,19.90
2022-08-30T21:17:10.761Z,19.90
2022-08-30T21:19:40.938Z,19.90
2022-08-30T21:22:11.083Z,19.90
2022-08-30T21:24:37.930Z,19.90
2022-08-30T21:27:04.886Z,19.90
2022-08-30T21:29:33.247Z,19.90
2022-08-30T21:32:00.221Z,19.90
2022-08-30T21:34:27.091Z,20.00
2022-08-30T21:36:53.884Z,20.00
2022-08-30T21:39:22.721Z,19.90
2022-08-30T21:41:50.695Z,20.00
2022-08-30T21:44:19.932Z,20.00
2022-08-30T21:46:47.120Z,20.00
2022-08-30T21:49:15.436Z,20.00
2022-08-30T21:51:43.944Z,20.00
2022-08-30T21:54:11.089Z,20.00
2022-08-30T21:56:39.125Z,20.00
2022-08-30T21:59:06.619Z,20.00
2022-08-30T22:01:33.851Z,20.00
2022-08-30T22:04:03.556Z,20.00
2022-08-30T22:06:31.356Z,20.00
2022-08-30T22:08:58.468Z,20.00
2022-08-30T22:11:25.711Z,19.90
2022-08-30T22:13:53.082Z,19.90
2022-08-30T22:16:20.153Z,19.90
2022-08-30T22:18:46.983Z,19.80
2022-08-30T22:21:15.498Z,19.80
2022-08-30T22:23:42.318Z,19.70
2022-08-30T22:26:10.278Z,19.80
2022-08-30T22:28:37.267Z,19.70
2022-08-30T22:31:08.802Z,19.70
2022-08-30T22:33:35.836Z,19.70
2022-08-30T22:36:13.862Z,19.70
2022-08-30T22:38:40.776Z,19.70
2022-08-30T22:41:15.494Z,19.70
2022-08-30T22:43:42.444Z,19.60
2022-08-30T22:46:09.561Z,19.60
2022-08-30T22:48:37.293Z,19.50
2022-08-30T22:51:04.266Z,19.50
2022-08-30T22:53:31.121Z,19.50
2022-08-30T22:55:58.290Z,19.50
2022-08-30T22:58:25.247Z,19.50
2022-08-30T23:00:54.815Z,19.50
2022-08-30T23:03:22.311Z,19.50
2022-08-30T23:05:49.110Z,19.50
2022-08-30T23:08:15.913Z,19.50
2022-08-30T23:10:44.362Z,19.40
2022-08-30T23:13:11.248Z,19.50
2022-08-30T23:15:38.087Z,19.50
2022-08-30T23:18:04.932Z,19.50
2022-08-30T23:20:31.766Z,19.50
2022-08-30T23:22:58.551Z,19.40
2022-08-30T23:25:51.898Z,19.40
2022-08-30T23:28:38.349Z,19.40
2022-08-30T23:31:28.072Z,19.30
2022-08-30T23:34:13.499Z,19.30
2022-08-30T23:36:58.977Z,19.30
2022-08-30T23:39:44.246Z,19.30
2022-08-30T23:42:29.554Z,19.20
2022-08-30T23:45:15.165Z,19.20
2022-08-30T23:48:00.997Z,19.10
2022-08-30T23:50:46.204Z,19.10
2022-08-30T23:53:31.726Z,19.20
2022-08-30T23:56:17.190Z,19.00
2022-08-30T23:59:02.406Z,18.90
